createdAt,value
2022-10-18T00:02:31.432Z,28.83
2022-10-18T00:07:33.316Z,28.75
2022-10-18T00:12:36.065Z,31.20
2022-10-18T00:17:38.607Z,30.17
2022-10-18T00:22:41.200Z,30.13
2022-10-18T00:27:42.733Z,29.27
2022-10-18T00:32:44.235Z,31.50
2022-10-18T00:37:45.742Z,29.73
2022-10-18T00:42:47.240Z,26.65
2022-10-18T00:47:53.772Z,26.88
2022-10-18T00:53:00.326Z,26.88
2022-10-18T00:58:02.261Z,30.15
2022-10-18T01:03:03.768Z,26.85
2022-10-18T01:08:35.175Z,27.23
2022-10-18T01:14:02.631Z,26.00
2022-10-18T01:19:17.928Z,31.10
2022-10-18T01:24:41.079Z,27.05
2022-10-18T01:30:00.929Z,28.67
2022-10-18T01:35:07.020Z,28.92
2022-10-18T01:40:09.515Z,29.20
2022-10-18T01:45:11.722Z,27.65
2022-10-18T01:50:13.554Z,28.98
2022-10-18T01:55:15.356Z,26.45
2022-10-18T02:00:19.554Z,29.80
2022-10-18T02:05:30.836Z,28.50
2022-10-18T02:10:41.890Z,31.42
2022-10-18T02:15:47.463Z,28.45
2022-10-18T02:20:49.187Z,26.98
2022-10-18T02:25:51.020Z,27.23
2022-10-18T02:31:14.210Z,32.13
2022-10-18T02:36:22.594Z,27.83
2022-10-18T02:41:26.017Z,27.17
2022-10-18T02:51:34.159Z,27.17
2022-10-18T02:56:36.123Z,29.60
2022-10-18T03:01:37.687Z,27.30
2022-10-18T03:06:39.201Z,28.30
2022-10-18T03:11:40.693Z,27.55
2022-10-18T03:16:42.216Z,29.67
2022-10-18T03:21:43.719Z,30.35
2022-10-18T03:26:45.195Z,29.50
2022-10-18T03:31:46.765Z,29.92
2022-10-18T03:36:48.280Z,31.27
2022-10-18T03:41:50.538Z,30.88
2022-10-18T03:46:52.058Z,30.75
2022-10-18T03:51:53.620Z,28.67
2022-10-18T03:56:55.241Z,29.02
2022-10-18T04:01:56.925Z,29.65
2022-10-18T04:06:58.461Z,25.85
2022-10-18T04:11:59.996Z,26.83
2022-10-18T04:17:01.520Z,33.72
2022-10-18T04:22:03.087Z,32.08
2022-10-18T04:27:05.356Z,25.70
2022-10-18T04:32:06.854Z,28.20
2022-10-18T04:37:08.368Z,28.25
2022-10-18T04:42:09.881Z,27.38
2022-10-18T04:47:11.414Z,26.30
2022-10-18T04:52:13.384Z,29.35
2022-10-18T04:57:14.940Z,28.25
2022-10-18T05:02:16.458Z,27.58
2022-10-18T05:07:18.027Z,29.08
2022-10-18T05:12:19.535Z,27.75
2022-10-18T05:17:21.083Z,26.88
2022-10-18T05:22:22.591Z,30.55
2022-10-18T05:27:24.079Z,27.67
2022-10-18T05:32:25.614Z,27.67
2022-10-18T05:37:28.442Z,32.33
2022-10-18T05:42:30.317Z,27.92
2022-10-18T05:47:32.229Z,29.60
2022-10-18T05:52:34.150Z,26.13
2022-10-18T05:57:35.919Z,24.65
2022-10-18T06:02:37.503Z,25.45
2022-10-18T06:07:38.993Z,25.75
2022-10-18T06:12:40.547Z,24.63
2022-10-18T06:17:42.084Z,27.13
2022-10-18T06:22:43.577Z,27.80
2022-10-18T06:27:45.086Z,25.42
2022-10-18T06:32:46.702Z,27.60
2022-10-18T06:37:48.354Z,22.42
2022-10-18T06:43:00.011Z,24.15
2022-10-18T06:48:07.610Z,26.92
2022-10-18T06:53:09.745Z,22.67
2022-10-18T06:58:11.256Z,21.73
2022-10-18T07:03:12.861Z,24.67
2022-10-18T07:08:14.510Z,22.02
2022-10-18T07:13:33.089Z,24.27
2022-10-18T07:18:36.192Z,22.67
2022-10-18T07:23:39.812Z,24.17
2022-10-18T07:28:42.312Z,21.35
2022-10-18T07:33:43.890Z,20.02
2022-10-18T07:38:45.386Z,23.58
2022-10-18T07:43:48.964Z,21.88
2022-10-18T07:48:50.819Z,20.20
2022-10-18T07:53:52.436Z,20.73
2022-10-18T07:58:55.961Z,19.95
2022-10-18T08:04:03.253Z,21.83
2022-10-18T08:09:07.757Z,24.20
2022-10-18T08:14:09.245Z,21.35
2022-10-18T08:19:10.785Z,20.52
2022-10-18T08:24:12.293Z,19.98
2022-10-18T08:29:31.871Z,22.20
2022-10-18T08:34:34.875Z,21.85
2022-10-18T08:39:36.413Z,22.65
2022-10-18T08:44:45.785Z,23.73
2022-10-18T08:49:52.364Z,19.35
2022-10-18T08:55:08.057Z,22.70
2022-10-18T09:00:23.336Z,21.88
2022-10-18T09:05:43.212Z,20.05
2022-10-18T09:11:07.802Z,20.40
2022-10-18T09:16:20.358Z,22.40
2022-10-18T09:21:36.912Z,21.17
2022-10-18T09:26:47.190Z,23.95
2022-10-18T09:31:57.948Z,21.92
2022-10-18T09:37:00.018Z,22.80
2022-10-18T09:42:37.097Z,22.48
2022-10-18T09:47:42.550Z,22.83
2022-10-18T09:52:51.727Z,21.27
2022-10-18T09:58:02.625Z,19.27
2022-10-18T10:03:10.963Z,20.42
2022-10-18T10:08:12.659Z,18.77
2022-10-18T10:13:27.954Z,18.60
2022-10-18T10:18:31.291Z,20.80
2022-10-18T10:23:47.212Z,17.52
2022-10-18T10:28:49.970Z,19.08
2022-10-18T10:34:01.771Z,17.95
2022-10-18T10:39:09.892Z,19.25
2022-10-18T10:44:19.809Z,22.35
2022-10-18T10:49:40.752Z,20.38
2022-10-18T10:54:50.294Z,20.35
2022-10-18T10:59:55.711Z,14.98
2022-10-18T11:05:15.386Z,13.98
2022-10-18T11:10:23.106Z,12.73
2022-10-18T11:15:43.748Z,9.95
2022-10-18T11:21:11.798Z,10.82
2022-10-18T11:26:13.215Z,9.20
2022-10-18T11:31:24.804Z,7.00
2022-10-18T11:36:55.007Z,6.90
2022-10-18T11:42:21.312Z,6.60
2022-10-18T11:47:25.969Z,6.68
2022-10-18T11:52:36.409Z,6.10
2022-10-18T11:57:43.768Z,4.80
2022-10-18T12:03:15.642Z,4.75
2022-10-18T12:08:25.433Z,4.57
2022-10-18T12:13:36.587Z,6.47
2022-10-18T12:18:48.841Z,5.10
2022-10-18T12:24:03.405Z,5.00
2022-10-18T12:29:22.027Z,4.88
2022-10-18T12:34:23.775Z,3.35
2022-10-18T12:39:38.778Z,5.57
2022-10-18T12:45:01.723Z,5.53
2022-10-18T12:50:07.630Z,8.30
2022-10-18T12:55:16.949Z,2.25
2022-10-18T13:00:31.374Z,3.15
2022-10-18T13:06:06.416Z,2.72
2022-10-18T13:11:08.248Z,2.42
2022-10-18T13:16:14.836Z,2.17
2022-10-18T13:21:34.553Z,5.78
2022-10-18T13:26:42.825Z,5.25
2022-10-18T13:32:06.114Z,4.82
2022-10-18T13:37:10.590Z,4.53
2022-10-18T13:42:15.150Z,3.53
2022-10-18T13:47:33.787Z,1.70
2022-10-18T13:53:17.340Z,2.15
2022-10-18T13:58:48.771Z,1.70
2022-10-18T14:04:22.112Z,5.13
2022-10-18T14:09:40.242Z,2.90
2022-10-18T14:15:09.091Z,4.20
2022-10-18T14:20:18.843Z,2.95
2022-10-18T14:25:25.669Z,2.80
2022-10-18T14:30:27.171Z,2.60
2022-10-18T14:35:35.147Z,3.47
2022-10-18T14:40:39.143Z,3.35
2022-10-18T14:45:41.528Z,5.15
2022-10-18T14:50:44.888Z,5.03
2022-10-18T14:55:56.652Z,6.55
2022-10-18T15:00:59.099Z,5.50
2022-10-18T15:06:05.378Z,5.88
2022-10-18T15:11:10.510Z,2.85
2022-10-18T15:16:17.673Z,4.82
2022-10-18T15:21:23.781Z,3.22
2022-10-18T15:26:29.434Z,2.65
2022-10-18T15:31:35.658Z,3.80
2022-10-18T15:36:37.468Z,3.22
2022-10-18T15:41:41.666Z,3.95
2022-10-18T15:46:43.994Z,3.53
2022-10-18T15:51:49.904Z,3.00
2022-10-18T15:56:51.597Z,3.45
2022-10-18T16:01:53.425Z,4.45
2022-10-18T16:06:56.421Z,3.85
2022-10-18T16:11:58.500Z,5.25
2022-10-18T16:17:03.379Z,3.55
2022-10-18T16:22:07.155Z,3.30
2022-10-18T16:27:09.737Z,3.33
2022-10-18T16:32:11.261Z,3.83
2022-10-18T16:37:12.737Z,3.17
2022-10-18T16:42:14.240Z,3.50
2022-10-18T16:47:16.415Z,4.22
2022-10-18T16:52:17.914Z,4.20
2022-10-18T16:57:19.485Z,3.95
2022-10-18T17:02:20.985Z,4.82
2022-10-18T17:07:24.796Z,4.05
2022-10-18T17:12:26.272Z,4.90
2022-10-18T17:17:27.851Z,4.50
2022-10-18T17:22:29.349Z,4.32
2022-10-18T17:27:31.266Z,4.70
2022-10-18T17:32:33.261Z,5.03
2022-10-18T17:37:35.308Z,3.83
2022-10-18T17:42:37.162Z,3.80
2022-10-18T17:47:38.803Z,3.58
2022-10-18T17:52:47.208Z,3.50
2022-10-18T17:57:48.759Z,3.08
2022-10-18T18:02:50.288Z,4.15
2022-10-18T18:07:51.893Z,4.70
2022-10-18T18:12:53.355Z,5.43
2022-10-18T18:17:58.336Z,4.05
2022-10-18T18:23:00.173Z,4.15
2022-10-18T18:28:06.678Z,4.85
2022-10-18T18:33:09.080Z,4.70
2022-10-18T18:38:10.557Z,7.20
2022-10-18T18:43:23.213Z,4.35
2022-10-18T18:48:26.549Z,7.72
2022-10-18T18:53:29.756Z,5.03
2022-10-18T18:58:31.858Z,5.45
2022-10-18T19:03:33.607Z,4.65
2022-10-18T19:08:36.753Z,4.97
2022-10-18T19:13:38.239Z,5.47
2022-10-18T19:18:39.756Z,6.15
2022-10-18T19:23:41.236Z,6.90
2022-10-18T19:28:42.862Z,6.93
2022-10-18T19:33:55.616Z,7.40
2022-10-18T19:39:01.085Z,8.60
2022-10-18T19:44:02.750Z,6.88
2022-10-18T19:49:04.398Z,8.00
2022-10-18T19:54:05.978Z,7.35
2022-10-18T19:59:08.060Z,7.55
2022-10-18T20:04:10.387Z,7.32
2022-10-18T20:09:16.082Z,7.30
2022-10-18T20:14:21.200Z,7.75
2022-10-18T20:19:22.826Z,9.20
2022-10-18T20:24:24.353Z,7.90
2022-10-18T20:29:25.899Z,7.28
2022-10-18T20:34:28.525Z,7.95
2022-10-18T20:39:30.057Z,9.00
2022-10-18T20:44:33.792Z,8.10
2022-10-18T20:49:35.295Z,7.20
2022-10-18T20:54:36.873Z,8.50
2022-10-18T20:59:38.473Z,7.95
2022-10-18T21:04:42.193Z,8.27
2022-10-18T21:09:44.040Z,7.82
2022-10-18T21:14:45.583Z,8.00
2022-10-18T21:19:47.124Z,7.90
2022-10-18T21:24:50.593Z,7.00
2022-10-18T21:29:52.138Z,7.57
2022-10-18T21:34:53.666Z,8.88
2022-10-18T21:39:55.260Z,10.10
2022-10-18T21:44:56.868Z,9.32
2022-10-18T21:49:58.582Z,11.52
2022-10-18T21:55:00.190Z,12.05
2022-10-18T22:00:02.493Z,10.93
2022-10-18T22:05:08.208Z,11.05
2022-10-18T22:10:12.732Z,17.75
2022-10-18T22:15:14.352Z,11.20
2022-10-18T22:20:16.077Z,10.07
2022-10-18T22:25:17.720Z,9.77
2022-10-18T22:30:19.314Z,10.18
2022-10-18T22:35:20.817Z,9.63
2022-10-18T22:40:22.324Z,10.73
2022-10-18T22:45:23.847Z,12.73
2022-10-18T22:50:25.381Z,11.25
2022-10-18T22:55:26.836Z,14.05
2022-10-18T23:00:28.367Z,15.02
2022-10-18T23:05:29.934Z,13.98
2022-10-18T23:10:31.536Z,16.33
2022-10-18T23:15:33.607Z,16.50
2022-10-18T23:20:35.344Z,17.88
2022-10-18T23:25:37.421Z,19.05
2022-10-18T23:30:39.010Z,20.10
2022-10-18T23:35:40.512Z,17.70
2022-10-18T23:40:42.024Z,18.33
2022-10-18T23:45:44.408Z,16.90
2022-10-18T23:50:45.939Z,20.30
2022-10-18T23:56:01.070Z,18.60
